sensor_id;sensor_type;location;lat;lon;timestamp;temperature;humidity
20459;DHT22;10388;52.314;7.938;2023-08-20T00:03:28;17.20;99.90
20459;DHT22;10388;52.314;7.938;2023-08-20T00:06:01;17.20;99.90
20459;DHT22;10388;52.314;7.938;2023-08-20T00:08:43;17.20;99.90
20459;DHT22;10388;52.314;7.938;2023-08-20T00:11:27;17.10;99.90
20459;DHT22;10388;52.314;7.938;2023-08-20T00:17:32;17.00;99.90
20459;DHT22;10388;52.314;7.938;2023-08-20T00:20:14;16.90;99.90
20459;DHT22;10388;52.314;7.938;2023-08-20T00:23:02;17.00;99.90
20459;DHT22;10388;52.314;7.938;2023-08-20T00:25:50;16.90;99.90
20459;DHT22;10388;52.314;7.938;2023-08-20T00:28:26;16.90;99.90
20459;DHT22;10388;52.314;7.938;2023-08-20T00:31:24;16.90;99.90
20459;DHT22;10388;52.314;7.938;2023-08-20T00:34:14;16.80;99.90
20459;DHT22;10388;52.314;7.938;2023-08-20T00:36:48;16.70;99.90
20459;DHT22;10388;52.314;7.938;2023-08-20T00:39:21;16.70;99.90
20459;DHT22;10388;52.314;7.938;2023-08-20T00:42:01;16.70;99.90
20459;DHT22;10388;52.314;7.938;2023-08-20T00:44:40;16.70;99.90
20459;DHT22;10388;52.314;7.938;2023-08-20T00:47:28;16.60;99.90
20459;DHT22;10388;52.314;7.938;2023-08-20T00:50:01;16.50;99.90
20459;DHT22;10388;52.314;7.938;2023-08-20T00:52:46;16.50;99.90
20459;DHT22;10388;52.314;7.938;2023-08-20T00:55:35;16.50;99.90
20459;DHT22;10388;52.314;7.938;2023-08-20T00:58:18;16.50;99.90
20459;DHT22;10388;52.314;7.938;2023-08-20T01:00:59;16.50;99.90
20459;DHT22;10388;52.314;7.938;2023-08-20T01:03:43;16.40;99.90
20459;DHT22;10388;52.314;7.938;2023-08-20T01:09:05;16.30;99.90
20459;DHT22;10388;52.314;7.938;2023-08-20T01:11:46;16.30;99.90
20459;DHT22;10388;52.314;7.938;2023-08-20T01:14:38;16.30;99.90
20459;DHT22;10388;52.314;7.938;2023-08-20T01:17:39;16.30;99.90
20459;DHT22;10388;52.314;7.938;2023-08-20T01:20:31;16.20;99.90
20459;DHT22;10388;52.314;7.938;2023-08-20T01:23:42;16.20;99.90
20459;DHT22;10388;52.314;7.938;2023-08-20T01:30:02;16.20;99.90
20459;DHT22;10388;52.314;7.938;2023-08-20T01:32:41;16.30;99.90
20459;DHT22;10388;52.314;7.938;2023-08-20T01:35:34;16.20;99.90
20459;DHT22;10388;52.314;7.938;2023-08-20T01:38:13;16.20;99.90
20459;DHT22;10388;52.314;7.938;2023-08-20T01:41:17;16.10;99.90
20459;DHT22;10388;52.314;7.938;2023-08-20T01:43:52;16.10;99.90
20459;DHT22;10388;52.314;7.938;2023-08-20T01:46:26;16.10;99.90
20459;DHT22;10388;52.314;7.938;2023-08-20T01:49:06;16.10;99.90
20459;DHT22;10388;52.314;7.938;2023-08-20T01:51:39;16.00;99.90
20459;DHT22;10388;52.314;7.938;2023-08-20T01:54:22;16.00;99.90
20459;DHT22;10388;52.314;7.938;2023-08-20T01:57:05;16.00;99.90
20459;DHT22;10388;52.314;7.938;2023-08-20T01:59:43;16.00;99.90
20459;DHT22;10388;52.314;7.938;2023-08-20T02:02:31;15.90;99.90
20459;DHT22;10388;52.314;7.938;2023-08-20T02:05:12;15.90;99.90
20459;DHT22;10388;52.314;7.938;2023-08-20T02:07:55;15.90;99.90
20459;DHT22;10388;52.314;7.938;2023-08-20T02:10:36;15.90;99.90
20459;DHT22;10388;52.314;7.938;2023-08-20T02:13:18;15.80;99.90
20459;DHT22;10388;52.314;7.938;2023-08-20T02:19:16;15.80;99.90
20459;DHT22;10388;52.314;7.938;2023-08-20T02:24:54;15.80;99.90
20459;DHT22;10388;52.314;7.938;2023-08-20T02:27:28;15.70;99.90
20459;DHT22;10388;52.314;7.938;2023-08-20T02:30:13;15.70;99.90
20459;DHT22;10388;52.314;7.938;2023-08-20T02:33:03;15.70;99.90
20459;DHT22;10388;52.314;7.938;2023-08-20T02:36:00;15.80;99.90
20459;DHT22;10388;52.314;7.938;2023-08-20T02:38:49;15.80;99.90
20459;DHT22;10388;52.314;7.938;2023-08-20T02:41:46;15.80;99.90
20459;DHT22;10388;52.314;7.938;2023-08-20T02:44:19;15.80;99.90
20459;DHT22;10388;52.314;7.938;2023-08-20T02:46:57;15.80;99.90
20459;DHT22;10388;52.314;7.938;2023-08-20T02:49:46;15.80;99.90
20459;DHT22;10388;52.314;7.938;2023-08-20T02:52:17;15.80;99.90
20459;DHT22;10388;52.314;7.938;2023-08-20T02:55:00;15.80;99.90
20459;DHT22;10388;52.314;7.938;2023-08-20T02:57:40;15.70;99.90
20459;DHT22;10388;52.314;7.938;2023-08-20T03:00:26;15.80;99.90
20459;DHT22;10388;52.314;7.938;2023-08-20T03:03:12;15.80;99.90
20459;DHT22;10388;52.314;7.938;2023-08-20T03:05:48;15.70;99.90
20459;DHT22;10388;52.314;7.938;2023-08-20T03:08:24;15.70;99.90
20459;DHT22;10388;52.314;7.938;2023-08-20T03:11:02;15.70;99.90
20459;DHT22;10388;52.314;7.938;2023-08-20T03:13:41;15.70;99.90
20459;DHT22;10388;52.314;7.938;2023-08-20T03:16:31;15.70;99.90
20459;DHT22;10388;52.314;7.938;2023-08-20T03:19:29;15.70;99.90
20459;DHT22;10388;52.314;7.938;2023-08-20T03:22:16;15.70;99.90
20459;DHT22;10388;52.314;7.938;2023-08-20T03:25:05;15.70;99.90
20459;DHT22;10388;52.314;7.938;2023-08-20T03:27:46;15.70;99.90
20459;DHT22;10388;52.314;7.938;2023-08-20T03:30:24;15.70;99.90
20459;DHT22;10388;52.314;7.938;2023-08-20T03:32:54;15.70;99.90
20459;DHT22;10388;52.314;7.938;2023-08-20T03:35:25;15.70;99.90
20459;DHT22;10388;52.314;7.938;2023-08-20T03:37:56;15.70;99.90
20459;DHT22;10388;52.314;7.938;2023-08-20T03:40:27;15.70;99.90
20459;DHT22;10388;52.314;7.938;2023-08-20T03:42:58;15.70;99.90
20459;DHT22;10388;52.314;7.938;2023-08-20T03:45:29;15.70;99.90
20459;DHT22;10388;52.314;7.938;2023-08-20T03:48:01;15.70;99.90
20459;DHT22;10388;52.314;7.938;2023-08-20T03:50:31;15.70;99.90
20459;DHT22;10388;52.314;7.938;2023-08-20T03:53:02;15.60;99.90
20459;DHT22;10388;52.314;7.938;2023-08-20T03:55:32;15.60;99.90
20459;DHT22;10388;52.314;7.938;2023-08-20T03:58:03;15.60;99.90
20459;DHT22;10388;52.314;7.938;2023-08-20T04:00:35;15.60;99.90
20459;DHT22;10388;52.314;7.938;2023-08-20T04:03:05;15.60;99.90
20459;DHT22;10388;52.314;7.938;2023-08-20T04:05:39;15.50;99.90
20459;DHT22;10388;52.314;7.938;2023-08-20T04:08:10;15.50;99.90
20459;DHT22;10388;52.314;7.938;2023-08-20T04:10:44;15.50;99.90
20459;DHT22;10388;52.314;7.938;2023-08-20T04:13:17;15.50;99.90
20459;DHT22;10388;52.314;7.938;2023-08-20T04:15:49;15.50;99.90
20459;DHT22;10388;52.314;7.938;2023-08-20T04:18:19;15.40;99.90
20459;DHT22;10388;52.314;7.938;2023-08-20T04:20:51;15.50;99.90
20459;DHT22;10388;52.314;7.938;2023-08-20T04:23:22;15.40;99.90
20459;DHT22;10388;52.314;7.938;2023-08-20T04:25:52;15.40;99.90
20459;DHT22;10388;52.314;7.938;2023-08-20T04:28:23;15.50;99.90
20459;DHT22;10388;52.314;7.938;2023-08-20T04:30:54;15.40;99.90
20459;DHT22;10388;52.314;7.938;2023-08-20T04:33:24;15.40;99.90
20459;DHT22;10388;52.314;7.938;2023-08-20T04:35:55;15.50;99.90
20459;DHT22;10388;52.314;7.938;2023-08-20T04:38:26;15.40;99.90
20459;DHT22;10388;52.314;7.938;2023-08-20T04:40:56;15.50;99.90
20459;DHT22;10388;52.314;7.938;2023-08-20T04:43:27;15.40;99.90
20459;DHT22;10388;52.314;7.938;2023-08-20T04:45:57;15.40;99.90
20459;DHT22;10388;52.314;7.938;2023-08-20T04:48:28;15.50;99.90
20459;DHT22;10388;52.314;7.938;2023-08-20T04:50:58;15.50;99.90
20459;DHT22;10388;52.314;7.938;2023-08-20T04:53:30;15.40;99.90
20459;DHT22;10388;52.314;7.938;2023-08-20T04:56:01;15.50;99.90
20459;DHT22;10388;52.314;7.938;2023-08-20T04:58:31;15.50;99.90
20459;DHT22;10388;52.314;7.938;2023-08-20T05:01:02;15.50;99.90
20459;DHT22;10388;52.314;7.938;2023-08-20T05:03:33;15.50;99.90
20459;DHT22;10388;52.314;7.938;2023-08-20T05:06:03;15.50;99.90
20459;DHT22;10388;52.314;7.938;2023-08-20T05:08:34;15.50;99.90
20459;DHT22;10388;52.314;7.938;2023-08-20T05:11:05;15.50;99.90
20459;DHT22;10388;52.314;7.938;2023-08-20T05:13:36;15.60;99.90
20459;DHT22;10388;52.314;7.938;2023-08-20T05:16:06;15.70;99.90
20459;DHT22;10388;52.314;7.938;2023-08-20T05:18:37;15.70;99.90
20459;DHT22;10388;52.314;7.938;2023-08-20T05:21:07;15.80;99.90
20459;DHT22;10388;52.314;7.938;2023-08-20T05:23:38;15.80;99.90
20459;DHT22;10388;52.314;7.938;2023-08-20T05:26:08;15.90;99.90
20459;DHT22;10388;52.314;7.938;2023-08-20T05:28:39;15.90;99.90
20459;DHT22;10388;52.314;7.938;2023-08-20T05:31:10;16.00;99.90
20459;DHT22;10388;52.314;7.938;2023-08-20T05:33:41;16.00;99.90
20459;DHT22;10388;52.314;7.938;2023-08-20T05:36:11;16.10;99.90
20459;DHT22;10388;52.314;7.938;2023-08-20T05:38:42;16.10;99.90
20459;DHT22;10388;52.314;7.938;2023-08-20T05:41:13;16.20;99.90
20459;DHT22;10388;52.314;7.938;2023-08-20T05:43:43;16.30;99.90
20459;DHT22;10388;52.314;7.938;2023-08-20T05:46:14;16.30;99.90
20459;DHT22;10388;52.314;7.938;2023-08-20T05:48:45;16.40;99.90
20459;DHT22;10388;52.314;7.938;2023-08-20T05:54:52;16.50;99.90
20459;DHT22;10388;52.314;7.938;2023-08-20T05:57:23;16.60;99.90
20459;DHT22;10388;52.314;7.938;2023-08-20T05:59:53;16.70;99.90
20459;DHT22;10388;52.314;7.938;2023-08-20T06:02:24;16.80;99.90
20459;DHT22;10388;52.314;7.938;2023-08-20T06:04:54;16.90;99.90
20459;DHT22;10388;52.314;7.938;2023-08-20T06:07:25;17.00;99.90
20459;DHT22;10388;52.314;7.938;2023-08-20T06:09:55;17.00;99.90
20459;DHT22;10388;52.314;7.938;2023-08-20T06:12:27;17.10;99.90
20459;DHT22;10388;52.314;7.938;2023-08-20T06:14:57;17.20;99.90
20459;DHT22;10388;52.314;7.938;2023-08-20T06:17:28;17.30;99.90
20459;DHT22;10388;52.314;7.938;2023-08-20T06:19:58;17.40;99.90
20459;DHT22;10388;52.314;7.938;2023-08-20T06:22:29;17.50;99.90
20459;DHT22;10388;52.314;7.938;2023-08-20T06:24:59;17.60;99.90
20459;DHT22;10388;52.314;7.938;2023-08-20T06:27:30;17.60;99.90
20459;DHT22;10388;52.314;7.938;2023-08-20T06:30:01;17.70;99.90
20459;DHT22;10388;52.314;7.938;2023-08-20T06:32:31;17.80;99.90
20459;DHT22;10388;52.314;7.938;2023-08-20T06:35:02;17.90;99.90
20459;DHT22;10388;52.314;7.938;2023-08-20T06:37:32;18.00;99.90
20459;DHT22;10388;52.314;7.938;2023-08-20T06:40:04;18.20;99.90
20459;DHT22;10388;52.314;7.938;2023-08-20T06:42:34;18.30;99.90
20459;DHT22;10388;52.314;7.938;2023-08-20T06:45:05;18.50;99.90
20459;DHT22;10388;52.314;7.938;2023-08-20T06:47:36;18.60;99.90
20459;DHT22;10388;52.314;7.938;2023-08-20T06:50:07;18.70;99.90
20459;DHT22;10388;52.314;7.938;2023-08-20T06:52:37;18.70;99.90
20459;DHT22;10388;52.314;7.938;2023-08-20T06:55:08;18.90;99.90
20459;DHT22;10388;52.314;7.938;2023-08-20T06:57:39;18.90;99.90
20459;DHT22;10388;52.314;7.938;2023-08-20T07:00:09;19.00;99.90
20459;DHT22;10388;52.314;7.938;2023-08-20T07:02:40;19.10;99.90
20459;DHT22;10388;52.314;7.938;2023-08-20T07:05:11;19.20;99.90
20459;DHT22;10388;52.314;7.938;2023-08-20T07:07:41;19.30;99.90
20459;DHT22;10388;52.314;7.938;2023-08-20T07:10:12;19.40;99.90
20459;DHT22;10388;52.314;7.938;2023-08-20T07:12:42;19.50;99.90
20459;DHT22;10388;52.314;7.938;2023-08-20T07:15:13;19.60;99.90
20459;DHT22;10388;52.314;7.938;2023-08-20T07:17:43;19.70;99.90
20459;DHT22;10388;52.314;7.938;2023-08-20T07:20:14;19.80;99.90
20459;DHT22;10388;52.314;7.938;2023-08-20T07:22:44;20.00;99.90
20459;DHT22;10388;52.314;7.938;2023-08-20T07:25:15;20.10;99.90
20459;DHT22;10388;52.314;7.938;2023-08-20T07:27:45;20.20;99.90
20459;DHT22;10388;52.314;7.938;2023-08-20T07:30:16;20.30;99.90
20459;DHT22;10388;52.314;7.938;2023-08-20T07:32:47;20.40;99.90
20459;DHT22;10388;52.314;7.938;2023-08-20T07:35:17;20.50;99.90
20459;DHT22;10388;52.314;7.938;2023-08-20T07:37:48;20.60;99.90
20459;DHT22;10388;52.314;7.938;2023-08-20T07:40:19;20.70;99.90
20459;DHT22;10388;52.314;7.938;2023-08-20T07:42:49;20.80;99.90
20459;DHT22;10388;52.314;7.938;2023-08-20T07:45:20;20.90;99.90
20459;DHT22;10388;52.314;7.938;2023-08-20T07:47:51;21.00;99.90
20459;DHT22;10388;52.314;7.938;2023-08-20T07:50:22;21.10;99.90
20459;DHT22;10388;52.314;7.938;2023-08-20T07:52:52;21.20;99.90
20459;DHT22;10388;52.314;7.938;2023-08-20T07:55:23;21.30;99.90
20459;DHT22;10388;52.314;7.938;2023-08-20T07:57:53;21.40;99.90
20459;DHT22;10388;52.314;7.938;2023-08-20T08:00:24;21.50;99.90
20459;DHT22;10388;52.314;7.938;2023-08-20T08:02:55;21.60;99.90
20459;DHT22;10388;52.314;7.938;2023-08-20T08:05:25;21.80;99.90
20459;DHT22;10388;52.314;7.938;2023-08-20T08:07:56;21.80;99.90
20459;DHT22;10388;52.314;7.938;2023-08-20T08:10:26;21.90;99.90
20459;DHT22;10388;52.314;7.938;2023-08-20T08:12:57;22.00;99.90
20459;DHT22;10388;52.314;7.938;2023-08-20T08:15:27;22.10;99.90
20459;DHT22;10388;52.314;7.938;2023-08-20T08:17:58;22.20;99.90
20459;DHT22;10388;52.314;7.938;2023-08-20T08:20:28;22.30;99.90
20459;DHT22;10388;52.314;7.938;2023-08-20T08:22:59;22.50;99.90
20459;DHT22;10388;52.314;7.938;2023-08-20T08:25:29;22.60;99.90
20459;DHT22;10388;52.314;7.938;2023-08-20T08:28:00;22.60;99.90
20459;DHT22;10388;52.314;7.938;2023-08-20T08:30:30;22.60;99.90
20459;DHT22;10388;52.314;7.938;2023-08-20T08:33:01;22.70;99.90
20459;DHT22;10388;52.314;7.938;2023-08-20T08:35:31;22.80;99.90
20459;DHT22;10388;52.314;7.938;2023-08-20T08:38:02;23.00;99.90
20459;DHT22;10388;52.314;7.938;2023-08-20T08:40:33;23.00;99.90
20459;DHT22;10388;52.314;7.938;2023-08-20T08:43:04;23.10;99.90
20459;DHT22;10388;52.314;7.938;2023-08-20T08:45:35;23.20;99.90
20459;DHT22;10388;52.314;7.938;2023-08-20T08:48:06;23.30;99.90
20459;DHT22;10388;52.314;7.938;2023-08-20T08:50:37;23.40;99.90
20459;DHT22;10388;52.314;7.938;2023-08-20T08:53:08;23.50;99.90
20459;DHT22;10388;52.314;7.938;2023-08-20T08:55:38;23.50;99.90
20459;DHT22;10388;52.314;7.938;2023-08-20T08:58:09;23.70;99.90
20459;DHT22;10388;52.314;7.938;2023-08-20T09:00:40;23.80;99.90
20459;DHT22;10388;52.314;7.938;2023-08-20T09:03:11;24.00;99.90
20459;DHT22;10388;52.314;7.938;2023-08-20T09:05:49;24.10;99.90
20459;DHT22;10388;52.314;7.938;2023-08-20T09:08:27;24.10;99.90
20459;DHT22;10388;52.314;7.938;2023-08-20T09:10:59;24.20;99.90
20459;DHT22;10388;52.314;7.938;2023-08-20T09:13:41;24.30;99.90
20459;DHT22;10388;52.314;7.938;2023-08-20T09:16:12;24.50;99.90
20459;DHT22;10388;52.314;7.938;2023-08-20T09:18:46;24.40;99.90
20459;DHT22;10388;52.314;7.938;2023-08-20T09:21:16;24.20;99.90
20459;DHT22;10388;52.314;7.938;2023-08-20T09:23:47;24.30;99.90
20459;DHT22;10388;52.314;7.938;2023-08-20T09:26:17;24.50;99.90
20459;DHT22;10388;52.314;7.938;2023-08-20T09:28:48;24.80;99.90
20459;DHT22;10388;52.314;7.938;2023-08-20T09:31:18;25.00;99.90
20459;DHT22;10388;52.314;7.938;2023-08-20T09:33:50;25.10;99.90
20459;DHT22;10388;52.314;7.938;2023-08-20T09:36:31;25.20;99.90
20459;DHT22;10388;52.314;7.938;2023-08-20T09:39:02;24.90;99.90
20459;DHT22;10388;52.314;7.938;2023-08-20T09:41:35;24.70;99.90
20459;DHT22;10388;52.314;7.938;2023-08-20T09:44:06;24.50;99.90
20459;DHT22;10388;52.314;7.938;2023-08-20T09:46:38;24.80;99.90
20459;DHT22;10388;52.314;7.938;2023-08-20T09:49:11;24.90;99.90
20459;DHT22;10388;52.314;7.938;2023-08-20T09:51:48;25.00;99.90
20459;DHT22;10388;52.314;7.938;2023-08-20T09:54:27;25.30;99.90
20459;DHT22;10388;52.314;7.938;2023-08-20T09:57:00;25.30;99.90
20459;DHT22;10388;52.314;7.938;2023-08-20T09:59:32;25.00;99.90
20459;DHT22;10388;52.314;7.938;2023-08-20T10:02:07;24.90;99.90
20459;DHT22;10388;52.314;7.938;2023-08-20T10:04:39;25.00;99.90
20459;DHT22;10388;52.314;7.938;2023-08-20T10:07:11;25.20;99.90
20459;DHT22;10388;52.314;7.938;2023-08-20T10:09:43;25.40;99.90
20459;DHT22;10388;52.314;7.938;2023-08-20T10:12:16;25.60;99.90
20459;DHT22;10388;52.314;7.938;2023-08-20T10:14:47;25.60;99.90
20459;DHT22;10388;52.314;7.938;2023-08-20T10:17:17;25.80;99.90
20459;DHT22;10388;52.314;7.938;2023-08-20T10:19:48;26.00;99.90
20459;DHT22;10388;52.314;7.938;2023-08-20T10:22:19;26.00;99.90
20459;DHT22;10388;52.314;7.938;2023-08-20T10:24:51;25.90;99.90
20459;DHT22;10388;52.314;7.938;2023-08-20T10:27:27;25.80;99.90
20459;DHT22;10388;52.314;7.938;2023-08-20T10:30:01;25.70;99.90
20459;DHT22;10388;52.314;7.938;2023-08-20T10:35:24;25.60;99.90
20459;DHT22;10388;52.314;7.938;2023-08-20T10:38:06;25.50;99.90
20459;DHT22;10388;52.314;7.938;2023-08-20T10:40:59;25.80;99.90
20459;DHT22;10388;52.314;7.938;2023-08-20T10:43:32;26.10;99.90
20459;DHT22;10388;52.314;7.938;2023-08-20T10:48:40;25.60;99.90
20459;DHT22;10388;52.314;7.938;2023-08-20T10:51:12;25.30;99.90
20459;DHT22;10388;52.314;7.938;2023-08-20T10:54:13;25.20;99.90
20459;DHT22;10388;52.314;7.938;2023-08-20T10:57:17;25.30;99.90
20459;DHT22;10388;52.314;7.938;2023-08-20T10:59:57;25.20;99.90
20459;DHT22;10388;52.314;7.938;2023-08-20T11:02:31;25.40;99.90
20459;DHT22;10388;52.314;7.938;2023-08-20T11:05:03;25.70;99.90
20459;DHT22;10388;52.314;7.938;2023-08-20T11:07:34;26.00;99.90
20459;DHT22;10388;52.314;7.938;2023-08-20T11:10:06;26.20;99.90
20459;DHT22;10388;52.314;7.938;2023-08-20T11:12:38;26.40;99.90
20459;DHT22;10388;52.314;7.938;2023-08-20T11:15:09;26.50;99.90
20459;DHT22;10388;52.314;7.938;2023-08-20T11:17:47;26.60;99.90
20459;DHT22;10388;52.314;7.938;2023-08-20T11:20:18;26.70;99.90
20459;DHT22;10388;52.314;7.938;2023-08-20T11:22:48;26.80;99.90
20459;DHT22;10388;52.314;7.938;2023-08-20T11:25:19;26.90;99.90
20459;DHT22;10388;52.314;7.938;2023-08-20T11:27:50;27.00;99.90
20459;DHT22;10388;52.314;7.938;2023-08-20T11:30:21;27.20;99.90
20459;DHT22;10388;52.314;7.938;2023-08-20T11:32:52;27.20;99.90
20459;DHT22;10388;52.314;7.938;2023-08-20T11:35:23;27.30;99.90
20459;DHT22;10388;52.314;7.938;2023-08-20T11:37:54;27.10;99.90
20459;DHT22;10388;52.314;7.938;2023-08-20T11:40:25;27.20;99.90
20459;DHT22;10388;52.314;7.938;2023-08-20T11:42:56;27.20;99.90
20459;DHT22;10388;52.314;7.938;2023-08-20T11:45:27;27.20;99.90
20459;DHT22;10388;52.314;7.938;2023-08-20T11:47:58;27.30;99.90
20459;DHT22;10388;52.314;7.938;2023-08-20T11:50:28;27.40;99.90
20459;DHT22;10388;52.314;7.938;2023-08-20T11:52:59;27.60;99.90
20459;DHT22;10388;52.314;7.938;2023-08-20T11:55:31;27.70;99.90
20459;DHT22;10388;52.314;7.938;2023-08-20T11:58:02;27.70;99.90
20459;DHT22;10388;52.314;7.938;2023-08-20T12:00:32;27.80;99.90
20459;DHT22;10388;52.314;7.938;2023-08-20T12:03:03;27.80;99.90
20459;DHT22;10388;52.314;7.938;2023-08-20T12:05:34;27.70;99.90
20459;DHT22;10388;52.314;7.938;2023-08-20T12:08:05;27.30;99.90
20459;DHT22;10388;52.314;7.938;2023-08-20T12:10:35;27.00;99.90
20459;DHT22;10388;52.314;7.938;2023-08-20T12:13:12;26.80;99.90
20459;DHT22;10388;52.314;7.938;2023-08-20T12:15:42;26.80;99.90
20459;DHT22;10388;52.314;7.938;2023-08-20T12:18:13;27.00;99.90
20459;DHT22;10388;52.314;7.938;2023-08-20T12:20:44;27.20;99.90
20459;DHT22;10388;52.314;7.938;2023-08-20T12:23:14;27.30;99.90
20459;DHT22;10388;52.314;7.938;2023-08-20T12:25:50;27.50;99.90
20459;DHT22;10388;52.314;7.938;2023-08-20T12:28:21;27.50;99.90
20459;DHT22;10388;52.314;7.938;2023-08-20T12:30:52;27.50;99.90
20459;DHT22;10388;52.314;7.938;2023-08-20T12:33:23;27.40;99.90
20459;DHT22;10388;52.314;7.938;2023-08-20T12:35:54;27.00;99.90
20459;DHT22;10388;52.314;7.938;2023-08-20T12:38:25;26.60;99.90
20459;DHT22;10388;52.314;7.938;2023-08-20T12:40:56;26.50;99.90
20459;DHT22;10388;52.314;7.938;2023-08-20T12:43:26;26.40;99.90
20459;DHT22;10388;52.314;7.938;2023-08-20T12:45:57;26.40;99.90
20459;DHT22;10388;52.314;7.938;2023-08-20T12:48:27;26.40;99.90
20459;DHT22;10388;52.314;7.938;2023-08-20T12:50:58;26.50;99.90
20459;DHT22;10388;52.314;7.938;2023-08-20T12:53:28;26.80;99.90
20459;DHT22;10388;52.314;7.938;2023-08-20T12:55:59;27.00;99.90
20459;DHT22;10388;52.314;7.938;2023-08-20T12:58:29;27.10;99.90
20459;DHT22;10388;52.314;7.938;2023-08-20T13:01:00;27.20;99.90
20459;DHT22;10388;52.314;7.938;2023-08-20T13:03:31;27.30;99.90
20459;DHT22;10388;52.314;7.938;2023-08-20T13:06:02;27.40;99.90
20459;DHT22;10388;52.314;7.938;2023-08-20T13:08:33;27.40;99.90
20459;DHT22;10388;52.314;7.938;2023-08-20T13:11:06;27.40;99.90
20459;DHT22;10388;52.314;7.938;2023-08-20T13:13:37;27.30;99.90
20459;DHT22;10388;52.314;7.938;2023-08-20T13:16:08;27.30;99.90
20459;DHT22;10388;52.314;7.938;2023-08-20T13:18:38;27.30;99.90
20459;DHT22;10388;52.314;7.938;2023-08-20T13:21:09;27.20;99.90
20459;DHT22;10388;52.314;7.938;2023-08-20T13:23:40;27.20;99.90
20459;DHT22;10388;52.314;7.938;2023-08-20T13:26:11;27.20;99.90
20459;DHT22;10388;52.314;7.938;2023-08-20T13:28:41;27.20;99.90
20459;DHT22;10388;52.314;7.938;2023-08-20T13:31:12;27.10;99.90
20459;DHT22;10388;52.314;7.938;2023-08-20T13:33:42;27.20;99.90
20459;DHT22;10388;52.314;7.938;2023-08-20T13:36:13;27.20;99.90
20459;DHT22;10388;52.314;7.938;2023-08-20T13:38:43;27.10;99.90
20459;DHT22;10388;52.314;7.938;2023-08-20T13:41:14;27.00;99.90
20459;DHT22;10388;52.314;7.938;2023-08-20T13:43:44;26.80;99.90
20459;DHT22;10388;52.314;7.938;2023-08-20T13:46:15;26.70;99.90
20459;DHT22;10388;52.314;7.938;2023-08-20T13:48:45;26.70;99.90
20459;DHT22;10388;52.314;7.938;2023-08-20T13:51:16;26.70;99.90
20459;DHT22;10388;52.314;7.938;2023-08-20T13:53:47;26.60;99.90
20459;DHT22;10388;52.314;7.938;2023-08-20T13:56:17;26.60;99.90
20459;DHT22;10388;52.314;7.938;2023-08-20T13:58:48;26.70;99.90
20459;DHT22;10388;52.314;7.938;2023-08-20T14:01:18;26.70;99.90
20459;DHT22;10388;52.314;7.938;2023-08-20T14:03:49;26.70;99.90
20459;DHT22;10388;52.314;7.938;2023-08-20T14:06:20;26.80;99.90
20459;DHT22;10388;52.314;7.938;2023-08-20T14:08:50;26.70;99.90
20459;DHT22;10388;52.314;7.938;2023-08-20T14:11:21;26.80;99.90
20459;DHT22;10388;52.314;7.938;2023-08-20T14:13:51;26.70;99.90
20459;DHT22;10388;52.314;7.938;2023-08-20T14:16:22;26.70;99.90
20459;DHT22;10388;52.314;7.938;2023-08-20T14:18:53;26.70;99.90
20459;DHT22;10388;52.314;7.938;2023-08-20T14:21:23;26.70;99.90
20459;DHT22;10388;52.314;7.938;2023-08-20T14:23:54;26.70;99.90
20459;DHT22;10388;52.314;7.938;2023-08-20T14:26:24;26.60;99.90
20459;DHT22;10388;52.314;7.938;2023-08-20T14:28:55;26.60;99.90
20459;DHT22;10388;52.314;7.938;2023-08-20T14:31:25;26.60;99.90
20459;DHT22;10388;52.314;7.938;2023-08-20T14:33:56;26.50;99.90
20459;DHT22;10388;52.314;7.938;2023-08-20T14:36:26;26.50;99.90
20459;DHT22;10388;52.314;7.938;2023-08-20T14:38:57;26.40;99.90
20459;DHT22;10388;52.314;7.938;2023-08-20T14:41:27;26.40;99.90
20459;DHT22;10388;52.314;7.938;2023-08-20T14:43:58;26.40;99.90
20459;DHT22;10388;52.314;7.938;2023-08-20T14:46:28;26.40;99.90
20459;DHT22;10388;52.314;7.938;2023-08-20T14:48:59;26.40;99.90
20459;DHT22;10388;52.314;7.938;2023-08-20T14:51:29;26.30;99.90
20459;DHT22;10388;52.314;7.938;2023-08-20T14:54:00;26.40;99.90
20459;DHT22;10388;52.314;7.938;2023-08-20T14:56:31;26.40;99.90
20459;DHT22;10388;52.314;7.938;2023-08-20T14:59:01;26.40;99.90
20459;DHT22;10388;52.314;7.938;2023-08-20T15:01:34;26.30;99.90
20459;DHT22;10388;52.314;7.938;2023-08-20T15:04:04;26.20;99.90
20459;DHT22;10388;52.314;7.938;2023-08-20T15:06:35;26.10;99.90
20459;DHT22;10388;52.314;7.938;2023-08-20T15:09:06;26.10;99.90
20459;DHT22;10388;52.314;7.938;2023-08-20T15:11:40;26.10;99.90
20459;DHT22;10388;52.314;7.938;2023-08-20T15:14:11;26.20;99.90
20459;DHT22;10388;52.314;7.938;2023-08-20T15:16:42;26.30;99.90
20459;DHT22;10388;52.314;7.938;2023-08-20T15:19:12;26.30;99.90
20459;DHT22;10388;52.314;7.938;2023-08-20T15:21:43;26.30;99.90
20459;DHT22;10388;52.314;7.938;2023-08-20T15:24:13;26.30;99.90
20459;DHT22;10388;52.314;7.938;2023-08-20T15:26:44;26.20;99.90
20459;DHT22;10388;52.314;7.938;2023-08-20T15:29:14;26.20;99.90
20459;DHT22;10388;52.314;7.938;2023-08-20T15:31:45;26.00;99.90
20459;DHT22;10388;52.314;7.938;2023-08-20T15:34:15;25.80;99.90
20459;DHT22;10388;52.314;7.938;2023-08-20T15:36:46;25.60;99.90
20459;DHT22;10388;52.314;7.938;2023-08-20T15:39:16;25.60;99.90
20459;DHT22;10388;52.314;7.938;2023-08-20T15:41:51;25.50;99.90
20459;DHT22;10388;52.314;7.938;2023-08-20T15:44:22;25.60;99.90
20459;DHT22;10388;52.314;7.938;2023-08-20T15:46:53;25.60;99.90
20459;DHT22;10388;52.314;7.938;2023-08-20T15:49:23;25.50;99.90
20459;DHT22;10388;52.314;7.938;2023-08-20T15:51:54;25.60;99.90
20459;DHT22;10388;52.314;7.938;2023-08-20T15:54:24;25.60;99.90
20459;DHT22;10388;52.314;7.938;2023-08-20T15:56:56;25.60;99.90
20459;DHT22;10388;52.314;7.938;2023-08-20T15:59:26;25.40;99.90
20459;DHT22;10388;52.314;7.938;2023-08-20T16:01:57;25.20;99.90
20459;DHT22;10388;52.314;7.938;2023-08-20T16:04:27;25.10;99.90
20459;DHT22;10388;52.314;7.938;2023-08-20T16:06:58;25.00;99.90
20459;DHT22;10388;52.314;7.938;2023-08-20T16:09:28;25.10;99.90
20459;DHT22;10388;52.314;7.938;2023-08-20T16:11:59;25.10;99.90
20459;DHT22;10388;52.314;7.938;2023-08-20T16:14:37;25.00;99.90
20459;DHT22;10388;52.314;7.938;2023-08-20T16:17:16;25.00;99.90
20459;DHT22;10388;52.314;7.938;2023-08-20T16:19:46;24.80;99.90
20459;DHT22;10388;52.314;7.938;2023-08-20T16:22:17;24.80;99.90
20459;DHT22;10388;52.314;7.938;2023-08-20T16:24:48;24.70;99.90
20459;DHT22;10388;52.314;7.938;2023-08-20T16:27:18;24.70;99.90
20459;DHT22;10388;52.314;7.938;2023-08-20T16:29:49;24.60;99.90
20459;DHT22;10388;52.314;7.938;2023-08-20T16:32:20;24.50;99.90
20459;DHT22;10388;52.314;7.938;2023-08-20T16:34:50;24.40;99.90
20459;DHT22;10388;52.314;7.938;2023-08-20T16:37:21;24.40;99.90